Jennifer C — WDI8828 — position and weather

sailwx.info

Track history (hours):
 
Tides and Currents Weather Stations Pressure Air Temp Water Temp Dewpoint Dewpoint Depression Visibility Wind Speed Wind Dir Waves Ship Positions

Jennifer C

Owner: Cross Sound Ferry Services, Inc, New London, CT. More information available from US FCC via Universal Licensing System and Coast Guard Vessel Documentation Center.

Last reported at 2018-Jun-22 00:55 UTC. Time now 2018-Jun-22 05:30 UTC.
Position N 41°17' W 072°06'.

Length 63 m.

Type: Passenger vessel. MMSI: 367742540.

Date/timePositionNaut miles runAvg speedWind from/ knotsBaromVisibWave heightAir tempDewpointWater temp
2018-Jun-22 00:55N 41°17' W 072°06'713.9
2018-Jun-22 00:27N 41°12' W 072°12'1 0.6
2018-Jun-21 23:01N 41°12' W 072°13'011.7
2018-Jun-21 22:59N 41°12' W 072°13'8 4.1
2018-Jun-21 21:03N 41°18' W 072°06'411.9
2018-Jun-21 20:45N 41°15' W 072°08'310.9
2018-Jun-21 20:27N 41°12' W 072°11'1 0.7
2018-Jun-21 18:55N 41°12' W 072°13'5 2.4
2018-Jun-21 16:44N 41°15' W 072°07'313.0
2018-Jun-21 16:30N 41°13' W 072°10'1 0.2
2018-Jun-21 12:38N 41°14' W 072°09'214.4
2018-Jun-21 12:29N 41°12' W 072°11'1 0.1
2018-Jun-21 00:55N 41°13' W 072°10'1 0.3
2018-Jun-20 22:35N 41°14' W 072°09'0 0.0
2018-Jun-20 14:36N 41°14' W 072°09'1 0.6
2018-Jun-20 12:50N 41°13' W 072°10'5 0.4
2018-Jun-20 00:54N 41°17' W 072°06'613.3
2018-Jun-20 00:28N 41°12' W 072°11'2 0.4
2018-Jun-19 20:37N 41°14' W 072°10'0 0.0
2018-Jun-19 16:38N 41°14' W 072°10'1 0.2
2018-Jun-19 12:39N 41°14' W 072°09'0 0.0
2018-Jun-18 22:33N 41°14' W 072°09'115.3
2018-Jun-18 22:30N 41°13' W 072°10'1 0.1
2018-Jun-18 18:35N 41°14' W 072°10'211.1
2018-Jun-18 18:24N 41°12' W 072°12'2 0.6
2018-Jun-18 14:31N 41°14' W 072°09'013.8
2018-Jun-18 14:31N 41°14' W 072°09'4 0.3
2018-Jun-18 02:40N 41°17' W 072°06'211.6
2018-Jun-18 02:30N 41°15' W 072°07'7 6.5
2018-Jun-18 01:22N 41°09' W 072°14'4 9.6
2018-Jun-18 00:59N 41°13' W 072°12'7 3.8
2018-Jun-17 23:00N 41°18' W 072°05'813.5
2018-Jun-17 22:25N 41°12' W 072°11'1 0.7
2018-Jun-17 21:10N 41°12' W 072°12'2 9.6
2018-Jun-17 20:59N 41°13' W 072°11'5 2.5
2018-Jun-17 18:55N 41°17' W 072°06'511.8
2018-Jun-17 18:30N 41°13' W 072°10'4 2.6
2018-Jun-17 17:03N 41°11' W 072°14'112.4
2018-Jun-17 16:57N 41°12' W 072°13'613.7
2018-Jun-17 16:30N 41°16' W 072°07'2 1.8
2018-Jun-17 15:07N 41°18' W 072°05'111.8
2018-Jun-17 15:00N 41°17' W 072°06'611.5
2018-Jun-17 14:28N 41°12' W 072°11'1 1.0
2018-Jun-17 13:04N 41°12' W 072°13'111.3
2018-Jun-17 12:58N 41°13' W 072°12'6 0.5
2018-Jun-17 00:55N 41°17' W 072°06'512.6
2018-Jun-17 00:30N 41°13' W 072°10'4 3.6
2018-Jun-16 23:20N 41°09' W 072°13'3 9.8
2018-Jun-16 23:00N 41°12' W 072°11'510.8
2018-Jun-16 22:30N 41°16' W 072°07'2 1.5
2018-Jun-16 21:01N 41°18' W 072°05'112.6
2018-Jun-16 20:54N 41°17' W 072°05'614.3
2018-Jun-16 20:30N 41°13' W 072°11'2 1.1
2018-Jun-16 19:03N 41°12' W 072°12'110.2
2018-Jun-16 18:59N 41°13' W 072°12'511.6
2018-Jun-16 18:30N 41°17' W 072°07'2 1.4
2018-Jun-16 17:05N 41°18' W 072°05'111.5
2018-Jun-16 16:58N 41°17' W 072°06'511.6
2018-Jun-16 16:30N 41°13' W 072°11'4 2.8
2018-Jun-16 15:14N 41°10' W 072°13'311.0
2018-Jun-16 15:00N 41°12' W 072°13'3 1.5
2018-Jun-16 12:45N 41°14' W 072°09'313.2
2018-Jun-16 12:30N 41°12' W 072°12'1 0.1
2018-Jun-16 02:43N 41°12' W 072°13'414.5
2018-Jun-16 02:25N 41°15' W 072°09'1 0.9
2018-Jun-16 00:52N 41°15' W 072°07'511.9
2018-Jun-16 00:29N 41°12' W 072°12'2 1.4
2018-Jun-15 23:13N 41°11' W 072°14'311.0
2018-Jun-15 22:56N 41°13' W 072°11'4 1.8
2018-Jun-15 20:50N 41°15' W 072°07'514.9
2018-Jun-15 20:30N 41°12' W 072°12'0 0.3
2018-Jun-15 19:04N 41°13' W 072°12'2 0.8
2018-Jun-15 16:38N 41°14' W 072°10'211.9
2018-Jun-15 16:29N 41°12' W 072°11'1 0.8
2018-Jun-15 14:58N 41°12' W 072°13'3 1.3
2018-Jun-15 12:42N 41°14' W 072°09'311.8
2018-Jun-15 12:29N 41°12' W 072°12'1 0.1
2018-Jun-15 00:54N 41°12' W 072°13'7 3.6
2018-Jun-14 22:59N 41°17' W 072°06'612.3
2018-Jun-14 22:30N 41°12' W 072°11'2 1.7
2018-Jun-14 21:11N 41°11' W 072°14'310.2
2018-Jun-14 20:54N 41°13' W 072°11'6 2.8
2018-Jun-14 18:55N 41°17' W 072°05'614.2
2018-Jun-14 18:30N 41°13' W 072°11'1 1.0
2018-Jun-14 17:01N 41°12' W 072°12'010.3
2018-Jun-14 16:59N 41°12' W 072°12'5 2.2
2018-Jun-14 14:54N 41°15' W 072°07'510.8
2018-Jun-14 14:29N 41°12' W 072°12'2 1.5
2018-Jun-14 13:03N 41°11' W 072°13'213.2
2018-Jun-14 12:56N 41°12' W 072°12'2 0.2
2018-Jun-14 00:41N 41°14' W 072°12'210.6
2018-Jun-14 00:29N 41°13' W 072°14'4 0.9
2018-Jun-13 20:35N 41°14' W 072°09'214.7
2018-Jun-13 20:28N 41°12' W 072°11'2 0.5
2018-Jun-13 16:38N 41°14' W 072°09'214.4
2018-Jun-13 16:28N 41°12' W 072°11'2 0.5
2018-Jun-13 12:41N 41°14' W 072°10'210.8
2018-Jun-13 12:30N 41°12' W 072°12'6 0.4
2018-Jun-12 22:58N 41°17' W 072°06'611.7
2018-Jun-12 22:29N 41°12' W 072°11'2 0.5
2018-Jun-12 18:33N 41°14' W 072°09'114.7
2018-Jun-12 18:30N 41°13' W 072°10'2 1.4
2018-Jun-12 17:04N 41°12' W 072°12'110.0
2018-Jun-12 16:55N 41°13' W 072°11'1 0.6
2018-Jun-12 14:34N 41°14' W 072°09'112.3
2018-Jun-12 14:30N 41°13' W 072°10'  
Track history (hours):
 
Tides and Currents Weather Stations Pressure Air Temp Water Temp Dewpoint Dewpoint Depression Visibility Wind Speed Wind Dir Waves Ship Positions

Jennifer C

Owner: Cross Sound Ferry Services, Inc, New London, CT. More information available from US FCC via Universal Licensing System and Coast Guard Vessel Documentation Center.

Last reported at 2018-Jun-22 00:55 UTC. Time now 2018-Jun-22 05:30 UTC.
Position N 41°17' W 072°06'.

Length 63 m.

Type: Passenger vessel. MMSI: 367742540.

Date/timePositionNaut miles runAvg speedWind from/ knotsBaromVisibWave heightAir tempDewpointWater temp
2018-Jun-22 00:55N 41°17' W 072°06'713.9
2018-Jun-22 00:27N 41°12' W 072°12'1 0.6
2018-Jun-21 23:01N 41°12' W 072°13'011.7
2018-Jun-21 22:59N 41°12' W 072°13'8 4.1
2018-Jun-21 21:03N 41°18' W 072°06'411.9
2018-Jun-21 20:45N 41°15' W 072°08'310.9
2018-Jun-21 20:27N 41°12' W 072°11'1 0.7
2018-Jun-21 18:55N 41°12' W 072°13'5 2.4
2018-Jun-21 16:44N 41°15' W 072°07'313.0
2018-Jun-21 16:30N 41°13' W 072°10'1 0.2
2018-Jun-21 12:38N 41°14' W 072°09'214.4
2018-Jun-21 12:29N 41°12' W 072°11'1 0.1
2018-Jun-21 00:55N 41°13' W 072°10'1 0.3
2018-Jun-20 22:35N 41°14' W 072°09'0 0.0
2018-Jun-20 14:36N 41°14' W 072°09'1 0.6
2018-Jun-20 12:50N 41°13' W 072°10'5 0.4
2018-Jun-20 00:54N 41°17' W 072°06'613.3
2018-Jun-20 00:28N 41°12' W 072°11'2 0.4
2018-Jun-19 20:37N 41°14' W 072°10'0 0.0
2018-Jun-19 16:38N 41°14' W 072°10'1 0.2
2018-Jun-19 12:39N 41°14' W 072°09'0 0.0
2018-Jun-18 22:33N 41°14' W 072°09'115.3
2018-Jun-18 22:30N 41°13' W 072°10'1 0.1
2018-Jun-18 18:35N 41°14' W 072°10'211.1
2018-Jun-18 18:24N 41°12' W 072°12'2 0.6
2018-Jun-18 14:31N 41°14' W 072°09'013.8
2018-Jun-18 14:31N 41°14' W 072°09'4 0.3
2018-Jun-18 02:40N 41°17' W 072°06'211.6
2018-Jun-18 02:30N 41°15' W 072°07'7 6.5
2018-Jun-18 01:22N 41°09' W 072°14'4 9.6
2018-Jun-18 00:59N 41°13' W 072°12'7 3.8
2018-Jun-17 23:00N 41°18' W 072°05'813.5
2018-Jun-17 22:25N 41°12' W 072°11'1 0.7
2018-Jun-17 21:10N 41°12' W 072°12'2 9.6
2018-Jun-17 20:59N 41°13' W 072°11'5 2.5
2018-Jun-17 18:55N 41°17' W 072°06'511.8
2018-Jun-17 18:30N 41°13' W 072°10'4 2.6
2018-Jun-17 17:03N 41°11' W 072°14'112.4
2018-Jun-17 16:57N 41°12' W 072°13'613.7
2018-Jun-17 16:30N 41°16' W 072°07'2 1.8
2018-Jun-17 15:07N 41°18' W 072°05'111.8
2018-Jun-17 15:00N 41°17' W 072°06'611.5
2018-Jun-17 14:28N 41°12' W 072°11'1 1.0
2018-Jun-17 13:04N 41°12' W 072°13'111.3
2018-Jun-17 12:58N 41°13' W 072°12'6 0.5
2018-Jun-17 00:55N 41°17' W 072°06'512.6
2018-Jun-17 00:30N 41°13' W 072°10'4 3.6
2018-Jun-16 23:20N 41°09' W 072°13'3 9.8
2018-Jun-16 23:00N 41°12' W 072°11'510.8
2018-Jun-16 22:30N 41°16' W 072°07'2 1.5
2018-Jun-16 21:01N 41°18' W 072°05'112.6
2018-Jun-16 20:54N 41°17' W 072°05'614.3
2018-Jun-16 20:30N 41°13' W 072°11'2 1.1
2018-Jun-16 19:03N 41°12' W 072°12'110.2
2018-Jun-16 18:59N 41°13' W 072°12'511.6
2018-Jun-16 18:30N 41°17' W 072°07'2 1.4
2018-Jun-16 17:05N 41°18' W 072°05'111.5
2018-Jun-16 16:58N 41°17' W 072°06'511.6
2018-Jun-16 16:30N 41°13' W 072°11'4 2.8
2018-Jun-16 15:14N 41°10' W 072°13'311.0
2018-Jun-16 15:00N 41°12' W 072°13'3 1.5
2018-Jun-16 12:45N 41°14' W 072°09'313.2
2018-Jun-16 12:30N 41°12' W 072°12'1 0.1
2018-Jun-16 02:43N 41°12' W 072°13'414.5
2018-Jun-16 02:25N 41°15' W 072°09'1 0.9
2018-Jun-16 00:52N 41°15' W 072°07'511.9
2018-Jun-16 00:29N 41°12' W 072°12'2 1.4
2018-Jun-15 23:13N 41°11' W 072°14'311.0
2018-Jun-15 22:56N 41°13' W 072°11'4 1.8
2018-Jun-15 20:50N 41°15' W 072°07'514.9
2018-Jun-15 20:30N 41°12' W 072°12'0 0.3
2018-Jun-15 19:04N 41°13' W 072°12'2 0.8
2018-Jun-15 16:38N 41°14' W 072°10'211.9
2018-Jun-15 16:29N 41°12' W 072°11'1 0.8
2018-Jun-15 14:58N 41°12' W 072°13'3 1.3
2018-Jun-15 12:42N 41°14' W 072°09'311.8
2018-Jun-15 12:29N 41°12' W 072°12'1 0.1
2018-Jun-15 00:54N 41°12' W 072°13'7 3.6
2018-Jun-14 22:59N 41°17' W 072°06'612.3
2018-Jun-14 22:30N 41°12' W 072°11'2 1.7
2018-Jun-14 21:11N 41°11' W 072°14'310.2
2018-Jun-14 20:54N 41°13' W 072°11'6 2.8
2018-Jun-14 18:55N 41°17' W 072°05'614.2
2018-Jun-14 18:30N 41°13' W 072°11'1 1.0
2018-Jun-14 17:01N 41°12' W 072°12'010.3
2018-Jun-14 16:59N 41°12' W 072°12'5 2.2
2018-Jun-14 14:54N 41°15' W 072°07'510.8
2018-Jun-14 14:29N 41°12' W 072°12'2 1.5
2018-Jun-14 13:03N 41°11' W 072°13'213.2
2018-Jun-14 12:56N 41°12' W 072°12'2 0.2
2018-Jun-14 00:41N 41°14' W 072°12'210.6
2018-Jun-14 00:29N 41°13' W 072°14'4 0.9
2018-Jun-13 20:35N 41°14' W 072°09'214.7
2018-Jun-13 20:28N 41°12' W 072°11'2 0.5
2018-Jun-13 16:38N 41°14' W 072°09'214.4
2018-Jun-13 16:28N 41°12' W 072°11'2 0.5
2018-Jun-13 12:41N 41°14' W 072°10'210.8
2018-Jun-13 12:30N 41°12' W 072°12'6 0.4
2018-Jun-12 22:58N 41°17' W 072°06'611.7
2018-Jun-12 22:29N 41°12' W 072°11'2 0.5
2018-Jun-12 18:33N 41°14' W 072°09'114.7
2018-Jun-12 18:30N 41°13' W 072°10'2 1.4
2018-Jun-12 17:04N 41°12' W 072°12'110.0
2018-Jun-12 16:55N 41°13' W 072°11'1 0.6
2018-Jun-12 14:34N 41°14' W 072°09'112.3
2018-Jun-12 14:30N 41°13' W 072°10'  

Dump ship's entire track history